sensor_id;sensor_type;location;lat;lon;timestamp;P1;durP1;ratioP1;P2;durP2;ratioP2
34836;SDS011;21053;50.848;4.652;2023-01-30T00:00:58;63.45;;;28.92;;
34836;SDS011;21053;50.848;4.652;2023-01-30T00:03:29;66.28;;;29.90;;
34836;SDS011;21053;50.848;4.652;2023-01-30T00:05:57;67.85;;;30.50;;
34836;SDS011;21053;50.848;4.652;2023-01-30T00:08:26;67.53;;;29.73;;
34836;SDS011;21053;50.848;4.652;2023-01-30T00:10:51;68.40;;;30.08;;
34836;SDS011;21053;50.848;4.652;2023-01-30T00:13:19;64.53;;;30.00;;
34836;SDS011;21053;50.848;4.652;2023-01-30T00:15:48;74.55;;;29.75;;
34836;SDS011;21053;50.848;4.652;2023-01-30T00:18:14;72.57;;;30.88;;
34836;SDS011;21053;50.848;4.652;2023-01-30T00:28:11;70.70;;;30.63;;
34836;SDS011;21053;50.848;4.652;2023-01-30T00:30:36;69.28;;;29.27;;
34836;SDS011;21053;50.848;4.652;2023-01-30T00:33:03;74.18;;;29.75;;
34836;SDS011;21053;50.848;4.652;2023-01-30T00:35:30;77.38;;;29.77;;
34836;SDS011;21053;50.848;4.652;2023-01-30T00:40:26;71.47;;;29.65;;
34836;SDS011;21053;50.848;4.652;2023-01-30T00:42:54;66.45;;;28.00;;
34836;SDS011;21053;50.848;4.652;2023-01-30T00:45:39;60.42;;;27.10;;
34836;SDS011;21053;50.848;4.652;2023-01-30T00:48:27;68.63;;;26.58;;
34836;SDS011;21053;50.848;4.652;2023-01-30T00:50:56;65.15;;;27.02;;
34836;SDS011;21053;50.848;4.652;2023-01-30T00:53:22;61.40;;;27.85;;
34836;SDS011;21053;50.848;4.652;2023-01-30T00:58:21;68.63;;;26.63;;
34836;SDS011;21053;50.848;4.652;2023-01-30T01:00:48;66.55;;;26.40;;
34836;SDS011;21053;50.848;4.652;2023-01-30T01:03:16;67.53;;;27.20;;
34836;SDS011;21053;50.848;4.652;2023-01-30T01:05:44;64.60;;;26.05;;
34836;SDS011;21053;50.848;4.652;2023-01-30T01:08:12;66.40;;;26.85;;
34836;SDS011;21053;50.848;4.652;2023-01-30T01:10:39;69.35;;;26.20;;
34836;SDS011;21053;50.848;4.652;2023-01-30T01:13:05;59.17;;;24.23;;
34836;SDS011;21053;50.848;4.652;2023-01-30T01:15:32;60.25;;;24.70;;
34836;SDS011;21053;50.848;4.652;2023-01-30T01:18:01;56.92;;;24.48;;
34836;SDS011;21053;50.848;4.652;2023-01-30T01:20:30;55.95;;;23.58;;
34836;SDS011;21053;50.848;4.652;2023-01-30T01:22:56;57.55;;;23.85;;
34836;SDS011;21053;50.848;4.652;2023-01-30T01:25:24;52.50;;;23.60;;
34836;SDS011;21053;50.848;4.652;2023-01-30T01:27:50;54.58;;;22.63;;
34836;SDS011;21053;50.848;4.652;2023-01-30T01:30:19;55.67;;;21.83;;
34836;SDS011;21053;50.848;4.652;2023-01-30T01:32:47;46.28;;;21.25;;
34836;SDS011;21053;50.848;4.652;2023-01-30T01:35:14;59.70;;;21.75;;
34836;SDS011;21053;50.848;4.652;2023-01-30T01:37:41;49.80;;;22.73;;
34836;SDS011;21053;50.848;4.652;2023-01-30T01:40:07;48.65;;;22.05;;
34836;SDS011;21053;50.848;4.652;2023-01-30T01:42:58;44.03;;;20.55;;
34836;SDS011;21053;50.848;4.652;2023-01-30T01:45:26;51.38;;;22.13;;
34836;SDS011;21053;50.848;4.652;2023-01-30T01:55:43;49.90;;;21.98;;
34836;SDS011;21053;50.848;4.652;2023-01-30T01:58:18;41.58;;;20.90;;
34836;SDS011;21053;50.848;4.652;2023-01-30T02:00:56;48.67;;;22.40;;
34836;SDS011;21053;50.848;4.652;2023-01-30T02:03:24;42.47;;;21.50;;
34836;SDS011;21053;50.848;4.652;2023-01-30T02:05:55;42.95;;;20.77;;
34836;SDS011;21053;50.848;4.652;2023-01-30T02:11:46;50.85;;;20.83;;
34836;SDS011;21053;50.848;4.652;2023-01-30T02:22:28;46.53;;;20.88;;
34836;SDS011;21053;50.848;4.652;2023-01-30T02:34:24;56.63;;;19.42;;
34836;SDS011;21053;50.848;4.652;2023-01-30T02:36:48;49.28;;;20.15;;
34836;SDS011;21053;50.848;4.652;2023-01-30T02:53:21;45.28;;;19.27;;
34836;SDS011;21053;50.848;4.652;2023-01-30T02:55:47;46.10;;;20.15;;
34836;SDS011;21053;50.848;4.652;2023-01-30T02:58:13;38.03;;;19.42;;
34836;SDS011;21053;50.848;4.652;2023-01-30T03:09:29;48.33;;;19.77;;
34836;SDS011;21053;50.848;4.652;2023-01-30T03:15:43;43.60;;;18.77;;
34836;SDS011;21053;50.848;4.652;2023-01-30T03:18:32;48.95;;;19.00;;
34836;SDS011;21053;50.848;4.652;2023-01-30T03:21:02;39.67;;;17.25;;
34836;SDS011;21053;50.848;4.652;2023-01-30T03:23:32;42.35;;;17.83;;
34836;SDS011;21053;50.848;4.652;2023-01-30T03:26:00;39.90;;;17.25;;
34836;SDS011;21053;50.848;4.652;2023-01-30T03:30:59;38.67;;;16.42;;
34836;SDS011;21053;50.848;4.652;2023-01-30T03:33:26;41.72;;;15.00;;
34836;SDS011;21053;50.848;4.652;2023-01-30T03:35:54;44.55;;;15.07;;
34836;SDS011;21053;50.848;4.652;2023-01-30T03:38:21;37.90;;;15.38;;
34836;SDS011;21053;50.848;4.652;2023-01-30T03:40:48;37.90;;;16.48;;
34836;SDS011;21053;50.848;4.652;2023-01-30T03:43:16;36.08;;;14.43;;
34836;SDS011;21053;50.848;4.652;2023-01-30T03:45:42;37.38;;;14.75;;
34836;SDS011;21053;50.848;4.652;2023-01-30T03:48:10;40.30;;;15.30;;
34836;SDS011;21053;50.848;4.652;2023-01-30T03:53:07;30.55;;;13.75;;
34836;SDS011;21053;50.848;4.652;2023-01-30T03:55:34;31.10;;;13.15;;
34836;SDS011;21053;50.848;4.652;2023-01-30T03:58:00;34.67;;;13.25;;
34836;SDS011;21053;50.848;4.652;2023-01-30T04:00:26;31.55;;;13.57;;
34836;SDS011;21053;50.848;4.652;2023-01-30T04:02:53;36.13;;;13.05;;
34836;SDS011;21053;50.848;4.652;2023-01-30T04:05:21;37.75;;;13.48;;
34836;SDS011;21053;50.848;4.652;2023-01-30T04:07:50;33.53;;;12.40;;
34836;SDS011;21053;50.848;4.652;2023-01-30T04:10:16;38.75;;;14.13;;
34836;SDS011;21053;50.848;4.652;2023-01-30T04:12:47;26.10;;;13.40;;
34836;SDS011;21053;50.848;4.652;2023-01-30T04:15:16;33.95;;;13.77;;
34836;SDS011;21053;50.848;4.652;2023-01-30T04:17:42;35.88;;;14.05;;
34836;SDS011;21053;50.848;4.652;2023-01-30T04:20:08;38.65;;;14.40;;
34836;SDS011;21053;50.848;4.652;2023-01-30T04:22:38;43.83;;;14.13;;
34836;SDS011;21053;50.848;4.652;2023-01-30T04:25:04;41.47;;;13.77;;
34836;SDS011;21053;50.848;4.652;2023-01-30T04:30:00;30.80;;;14.13;;
34836;SDS011;21053;50.848;4.652;2023-01-30T04:32:26;31.95;;;13.13;;
34836;SDS011;21053;50.848;4.652;2023-01-30T04:34:52;24.63;;;11.98;;
34836;SDS011;21053;50.848;4.652;2023-01-30T04:37:21;37.45;;;13.82;;
34836;SDS011;21053;50.848;4.652;2023-01-30T04:39:47;31.85;;;12.77;;
34836;SDS011;21053;50.848;4.652;2023-01-30T04:42:13;31.23;;;12.15;;
34836;SDS011;21053;50.848;4.652;2023-01-30T04:44:42;31.08;;;12.45;;
34836;SDS011;21053;50.848;4.652;2023-01-30T04:47:08;26.30;;;13.23;;
34836;SDS011;21053;50.848;4.652;2023-01-30T04:49:35;25.50;;;12.32;;
34836;SDS011;21053;50.848;4.652;2023-01-30T04:52:01;28.40;;;11.88;;
34836;SDS011;21053;50.848;4.652;2023-01-30T04:54:28;24.98;;;11.10;;
34836;SDS011;21053;50.848;4.652;2023-01-30T04:56:55;27.23;;;11.02;;
34836;SDS011;21053;50.848;4.652;2023-01-30T05:01:53;24.52;;;11.07;;
34836;SDS011;21053;50.848;4.652;2023-01-30T05:04:26;18.48;;;10.00;;
34836;SDS011;21053;50.848;4.652;2023-01-30T05:06:52;21.88;;;10.57;;
34836;SDS011;21053;50.848;4.652;2023-01-30T05:09:18;17.90;;;9.95;;
34836;SDS011;21053;50.848;4.652;2023-01-30T05:11:47;23.05;;;11.35;;
34836;SDS011;21053;50.848;4.652;2023-01-30T05:14:13;23.17;;;10.68;;
34836;SDS011;21053;50.848;4.652;2023-01-30T05:16:39;24.70;;;11.20;;
34836;SDS011;21053;50.848;4.652;2023-01-30T05:19:05;24.55;;;11.60;;
34836;SDS011;21053;50.848;4.652;2023-01-30T05:24:00;26.70;;;11.57;;
34836;SDS011;21053;50.848;4.652;2023-01-30T05:26:28;28.23;;;11.90;;
34836;SDS011;21053;50.848;4.652;2023-01-30T05:28:55;28.83;;;11.77;;
34836;SDS011;21053;50.848;4.652;2023-01-30T05:31:22;29.63;;;12.88;;
34836;SDS011;21053;50.848;4.652;2023-01-30T05:33:51;24.85;;;12.38;;
34836;SDS011;21053;50.848;4.652;2023-01-30T05:36:19;23.00;;;11.57;;
34836;SDS011;21053;50.848;4.652;2023-01-30T05:38:48;24.40;;;12.57;;
34836;SDS011;21053;50.848;4.652;2023-01-30T05:41:16;28.63;;;12.77;;
34836;SDS011;21053;50.848;4.652;2023-01-30T05:43:47;24.98;;;12.13;;
34836;SDS011;21053;50.848;4.652;2023-01-30T05:46:14;28.33;;;12.00;;
34836;SDS011;21053;50.848;4.652;2023-01-30T05:48:43;27.02;;;11.10;;
34836;SDS011;21053;50.848;4.652;2023-01-30T05:51:21;22.05;;;11.73;;
34836;SDS011;21053;50.848;4.652;2023-01-30T05:58:53;24.15;;;11.25;;
34836;SDS011;21053;50.848;4.652;2023-01-30T06:01:22;24.23;;;11.52;;
34836;SDS011;21053;50.848;4.652;2023-01-30T06:03:49;25.15;;;11.70;;
34836;SDS011;21053;50.848;4.652;2023-01-30T06:06:17;31.88;;;11.60;;
34836;SDS011;21053;50.848;4.652;2023-01-30T06:08:46;29.08;;;13.25;;
34836;SDS011;21053;50.848;4.652;2023-01-30T06:11:14;31.67;;;12.45;;
34836;SDS011;21053;50.848;4.652;2023-01-30T06:13:40;31.48;;;12.70;;
34836;SDS011;21053;50.848;4.652;2023-01-30T06:16:11;28.83;;;12.00;;
34836;SDS011;21053;50.848;4.652;2023-01-30T06:18:42;24.65;;;11.77;;
34836;SDS011;21053;50.848;4.652;2023-01-30T06:23:40;26.27;;;11.73;;
34836;SDS011;21053;50.848;4.652;2023-01-30T06:26:07;32.45;;;12.15;;
34836;SDS011;21053;50.848;4.652;2023-01-30T06:28:34;26.80;;;12.52;;
34836;SDS011;21053;50.848;4.652;2023-01-30T06:31:00;38.03;;;11.93;;
34836;SDS011;21053;50.848;4.652;2023-01-30T06:33:26;42.47;;;13.13;;
34836;SDS011;21053;50.848;4.652;2023-01-30T06:35:52;34.35;;;12.98;;
34836;SDS011;21053;50.848;4.652;2023-01-30T06:40:50;34.17;;;13.57;;
34836;SDS011;21053;50.848;4.652;2023-01-30T06:45:47;33.15;;;12.63;;
34836;SDS011;21053;50.848;4.652;2023-01-30T06:48:13;28.77;;;12.27;;
34836;SDS011;21053;50.848;4.652;2023-01-30T06:50:41;27.60;;;12.30;;
34836;SDS011;21053;50.848;4.652;2023-01-30T06:53:09;26.67;;;12.63;;
34836;SDS011;21053;50.848;4.652;2023-01-30T06:55:35;31.83;;;11.48;;
34836;SDS011;21053;50.848;4.652;2023-01-30T06:58:07;26.38;;;12.15;;
34836;SDS011;21053;50.848;4.652;2023-01-30T07:00:38;29.73;;;12.52;;
34836;SDS011;21053;50.848;4.652;2023-01-30T07:03:09;27.40;;;10.73;;
34836;SDS011;21053;50.848;4.652;2023-01-30T07:05:37;33.42;;;15.10;;
34836;SDS011;21053;50.848;4.652;2023-01-30T07:08:07;61.05;;;29.98;;
34836;SDS011;21053;50.848;4.652;2023-01-30T07:10:34;44.75;;;23.55;;
34836;SDS011;21053;50.848;4.652;2023-01-30T07:13:03;32.17;;;10.30;;
34836;SDS011;21053;50.848;4.652;2023-01-30T07:15:30;24.05;;;10.98;;
34836;SDS011;21053;50.848;4.652;2023-01-30T07:17:59;29.55;;;10.45;;
34836;SDS011;21053;50.848;4.652;2023-01-30T07:20:24;22.73;;;11.07;;
34836;SDS011;21053;50.848;4.652;2023-01-30T07:25:22;32.13;;;10.88;;
34836;SDS011;21053;50.848;4.652;2023-01-30T07:30:19;23.33;;;10.30;;
34836;SDS011;21053;50.848;4.652;2023-01-30T07:32:50;30.55;;;9.45;;
34836;SDS011;21053;50.848;4.652;2023-01-30T07:35:17;22.10;;;9.48;;
34836;SDS011;21053;50.848;4.652;2023-01-30T07:40:16;27.60;;;9.38;;
34836;SDS011;21053;50.848;4.652;2023-01-30T07:42:59;32.10;;;9.73;;
34836;SDS011;21053;50.848;4.652;2023-01-30T07:45:37;29.17;;;9.48;;
34836;SDS011;21053;50.848;4.652;2023-01-30T07:53:09;25.80;;;10.13;;
34836;SDS011;21053;50.848;4.652;2023-01-30T07:58:12;27.42;;;8.88;;
34836;SDS011;21053;50.848;4.652;2023-01-30T08:00:40;29.25;;;8.90;;
34836;SDS011;21053;50.848;4.652;2023-01-30T08:03:10;25.73;;;9.13;;
34836;SDS011;21053;50.848;4.652;2023-01-30T08:05:41;28.75;;;8.57;;
34836;SDS011;21053;50.848;4.652;2023-01-30T08:08:11;16.25;;;7.68;;
34836;SDS011;21053;50.848;4.652;2023-01-30T08:10:37;23.95;;;8.27;;
34836;SDS011;21053;50.848;4.652;2023-01-30T08:13:03;27.83;;;9.00;;
34836;SDS011;21053;50.848;4.652;2023-01-30T08:15:29;20.90;;;8.13;;
34836;SDS011;21053;50.848;4.652;2023-01-30T08:18:00;20.38;;;7.10;;
34836;SDS011;21053;50.848;4.652;2023-01-30T08:22:56;22.20;;;5.75;;
34836;SDS011;21053;50.848;4.652;2023-01-30T08:25:24;17.83;;;5.72;;
34836;SDS011;21053;50.848;4.652;2023-01-30T08:27:53;26.30;;;6.15;;
34836;SDS011;21053;50.848;4.652;2023-01-30T08:30:31;26.60;;;6.28;;
34836;SDS011;21053;50.848;4.652;2023-01-30T08:32:57;20.20;;;5.63;;
34836;SDS011;21053;50.848;4.652;2023-01-30T08:35:23;32.50;;;11.45;;
34836;SDS011;21053;50.848;4.652;2023-01-30T08:37:49;18.80;;;5.82;;
34836;SDS011;21053;50.848;4.652;2023-01-30T08:40:15;24.33;;;4.85;;
34836;SDS011;21053;50.848;4.652;2023-01-30T08:42:43;27.63;;;5.18;;
34836;SDS011;21053;50.848;4.652;2023-01-30T08:45:16;24.98;;;5.25;;
34836;SDS011;21053;50.848;4.652;2023-01-30T08:47:47;23.13;;;4.68;;
34836;SDS011;21053;50.848;4.652;2023-01-30T08:50:14;20.73;;;4.63;;
34836;SDS011;21053;50.848;4.652;2023-01-30T08:55:12;23.88;;;5.18;;
34836;SDS011;21053;50.848;4.652;2023-01-30T08:57:39;19.98;;;4.38;;
34836;SDS011;21053;50.848;4.652;2023-01-30T09:05:03;25.73;;;4.20;;
34836;SDS011;21053;50.848;4.652;2023-01-30T09:07:31;17.58;;;3.78;;
34836;SDS011;21053;50.848;4.652;2023-01-30T09:10:00;19.23;;;4.35;;
34836;SDS011;21053;50.848;4.652;2023-01-30T09:13:55;25.30;;;4.15;;
34836;SDS011;21053;50.848;4.652;2023-01-30T09:16:21;27.17;;;3.95;;
34836;SDS011;21053;50.848;4.652;2023-01-30T09:18:52;22.13;;;4.78;;
34836;SDS011;21053;50.848;4.652;2023-01-30T09:21:21;26.17;;;4.25;;
34836;SDS011;21053;50.848;4.652;2023-01-30T09:26:19;24.73;;;3.50;;
34836;SDS011;21053;50.848;4.652;2023-01-30T09:28:46;22.92;;;4.35;;
34836;SDS011;21053;50.848;4.652;2023-01-30T09:31:15;23.85;;;3.45;;
34836;SDS011;21053;50.848;4.652;2023-01-30T09:36:13;15.68;;;2.97;;
34836;SDS011;21053;50.848;4.652;2023-01-30T09:38:39;25.13;;;4.57;;
34836;SDS011;21053;50.848;4.652;2023-01-30T09:49:53;22.75;;;3.83;;
34836;SDS011;21053;50.848;4.652;2023-01-30T09:55:23;28.75;;;4.47;;
34836;SDS011;21053;50.848;4.652;2023-01-30T09:57:55;35.30;;;4.30;;
34836;SDS011;21053;50.848;4.652;2023-01-30T10:00:39;25.70;;;4.00;;
34836;SDS011;21053;50.848;4.652;2023-01-30T10:05:54;25.67;;;3.47;;
34836;SDS011;21053;50.848;4.652;2023-01-30T10:26:16;29.88;;;3.72;;
34836;SDS011;21053;50.848;4.652;2023-01-30T10:31:29;25.23;;;4.10;;
34836;SDS011;21053;50.848;4.652;2023-01-30T10:36:55;29.60;;;4.15;;
34836;SDS011;21053;50.848;4.652;2023-01-30T10:42:19;30.35;;;5.28;;
34836;SDS011;21053;50.848;4.652;2023-01-30T10:44:59;19.23;;;3.63;;
34836;SDS011;21053;50.848;4.652;2023-01-30T10:50:16;26.65;;;3.70;;
34836;SDS011;21053;50.848;4.652;2023-01-30T10:52:49;25.98;;;4.15;;
34836;SDS011;21053;50.848;4.652;2023-01-30T11:01:24;23.63;;;3.65;;
34836;SDS011;21053;50.848;4.652;2023-01-30T11:09:04;32.38;;;4.47;;
34836;SDS011;21053;50.848;4.652;2023-01-30T11:18:05;31.90;;;4.45;;
34836;SDS011;21053;50.848;4.652;2023-01-30T11:20:42;26.25;;;4.10;;
34836;SDS011;21053;50.848;4.652;2023-01-30T11:23:32;24.45;;;5.50;;
34836;SDS011;21053;50.848;4.652;2023-01-30T11:25:57;24.90;;;3.75;;
34836;SDS011;21053;50.848;4.652;2023-01-30T11:28:24;27.55;;;3.47;;
34836;SDS011;21053;50.848;4.652;2023-01-30T11:30:59;28.20;;;4.00;;
34836;SDS011;21053;50.848;4.652;2023-01-30T11:36:05;26.55;;;4.18;;
34836;SDS011;21053;50.848;4.652;2023-01-30T11:38:58;18.05;;;3.17;;
34836;SDS011;21053;50.848;4.652;2023-01-30T11:41:26;40.83;;;4.95;;
34836;SDS011;21053;50.848;4.652;2023-01-30T11:44:03;35.45;;;4.22;;
34836;SDS011;21053;50.848;4.652;2023-01-30T11:46:30;27.95;;;4.78;;
34836;SDS011;21053;50.848;4.652;2023-01-30T11:49:02;21.60;;;3.55;;
34836;SDS011;21053;50.848;4.652;2023-01-30T11:54:05;23.13;;;3.45;;
34836;SDS011;21053;50.848;4.652;2023-01-30T11:56:47;26.92;;;3.60;;
34836;SDS011;21053;50.848;4.652;2023-01-30T11:59:39;32.63;;;3.90;;
34836;SDS011;21053;50.848;4.652;2023-01-30T12:05:04;26.83;;;3.92;;
34836;SDS011;21053;50.848;4.652;2023-01-30T12:07:42;31.48;;;4.90;;
34836;SDS011;21053;50.848;4.652;2023-01-30T12:10:25;33.75;;;4.68;;
34836;SDS011;21053;50.848;4.652;2023-01-30T12:15:31;32.05;;;6.43;;
34836;SDS011;21053;50.848;4.652;2023-01-30T12:21:01;25.33;;;4.65;;
34836;SDS011;21053;50.848;4.652;2023-01-30T12:23:45;29.73;;;5.43;;
34836;SDS011;21053;50.848;4.652;2023-01-30T12:26:19;23.73;;;3.65;;
34836;SDS011;21053;50.848;4.652;2023-01-30T12:45:23;26.40;;;5.15;;
34836;SDS011;21053;50.848;4.652;2023-01-30T12:48:06;37.65;;;4.78;;
34836;SDS011;21053;50.848;4.652;2023-01-30T13:16:52;55.90;;;11.35;;
34836;SDS011;21053;50.848;4.652;2023-01-30T13:22:16;29.92;;;5.03;;
34836;SDS011;21053;50.848;4.652;2023-01-30T13:27:25;35.15;;;5.93;;
34836;SDS011;21053;50.848;4.652;2023-01-30T13:29:52;24.90;;;4.25;;
34836;SDS011;21053;50.848;4.652;2023-01-30T13:34:53;30.70;;;4.63;;
34836;SDS011;21053;50.848;4.652;2023-01-30T13:40:10;30.90;;;6.32;;
34836;SDS011;21053;50.848;4.652;2023-01-30T13:42:47;33.67;;;9.20;;
34836;SDS011;21053;50.848;4.652;2023-01-30T13:45:32;32.55;;;5.10;;
34836;SDS011;21053;50.848;4.652;2023-01-30T14:02:07;28.83;;;4.50;;
34836;SDS011;21053;50.848;4.652;2023-01-30T14:23:23;30.20;;;4.50;;
34836;SDS011;21053;50.848;4.652;2023-01-30T14:25:59;25.77;;;5.22;;
34836;SDS011;21053;50.848;4.652;2023-01-30T14:28:42;24.50;;;4.68;;
34836;SDS011;21053;50.848;4.652;2023-01-30T14:31:17;34.08;;;4.10;;
34836;SDS011;21053;50.848;4.652;2023-01-30T14:40:25;27.95;;;4.60;;
34836;SDS011;21053;50.848;4.652;2023-01-30T14:46:00;30.33;;;5.35;;
34836;SDS011;21053;50.848;4.652;2023-01-30T14:51:19;36.13;;;6.15;;
34836;SDS011;21053;50.848;4.652;2023-01-30T15:32:31;28.65;;;5.40;;
34836;SDS011;21053;50.848;4.652;2023-01-30T15:34:58;21.48;;;4.15;;
34836;SDS011;21053;50.848;4.652;2023-01-30T15:37:51;16.48;;;4.07;;
34836;SDS011;21053;50.848;4.652;2023-01-30T15:42:51;32.10;;;5.35;;
34836;SDS011;21053;50.848;4.652;2023-01-30T15:51:12;27.13;;;4.07;;
34836;SDS011;21053;50.848;4.652;2023-01-30T15:53:43;26.58;;;4.30;;
34836;SDS011;21053;50.848;4.652;2023-01-30T15:56:22;32.42;;;4.90;;
34836;SDS011;21053;50.848;4.652;2023-01-30T15:58:50;28.38;;;4.80;;
34836;SDS011;21053;50.848;4.652;2023-01-30T16:01:18;26.58;;;4.60;;
34836;SDS011;21053;50.848;4.652;2023-01-30T16:03:49;38.28;;;6.47;;
34836;SDS011;21053;50.848;4.652;2023-01-30T16:06:36;24.60;;;5.07;;
34836;SDS011;21053;50.848;4.652;2023-01-30T16:09:22;29.50;;;4.95;;
34836;SDS011;21053;50.848;4.652;2023-01-30T16:14:18;34.17;;;5.15;;
34836;SDS011;21053;50.848;4.652;2023-01-30T16:16:50;39.90;;;5.70;;
34836;SDS011;21053;50.848;4.652;2023-01-30T16:19:32;30.48;;;5.35;;
34836;SDS011;21053;50.848;4.652;2023-01-30T16:22:01;29.92;;;5.22;;
34836;SDS011;21053;50.848;4.652;2023-01-30T16:24:33;31.88;;;4.90;;
34836;SDS011;21053;50.848;4.652;2023-01-30T16:27:01;27.00;;;5.00;;
34836;SDS011;21053;50.848;4.652;2023-01-30T16:29:34;34.92;;;5.05;;
34836;SDS011;21053;50.848;4.652;2023-01-30T16:32:12;39.10;;;4.75;;
34836;SDS011;21053;50.848;4.652;2023-01-30T16:34:41;40.33;;;7.35;;
34836;SDS011;21053;50.848;4.652;2023-01-30T16:42:38;31.13;;;6.32;;
34836;SDS011;21053;50.848;4.652;2023-01-30T16:47:38;31.38;;;5.38;;
34836;SDS011;21053;50.848;4.652;2023-01-30T16:50:09;33.55;;;4.50;;
34836;SDS011;21053;50.848;4.652;2023-01-30T16:52:52;33.63;;;5.20;;
34836;SDS011;21053;50.848;4.652;2023-01-30T16:55:25;28.90;;;5.78;;
34836;SDS011;21053;50.848;4.652;2023-01-30T16:57:58;23.73;;;3.67;;
34836;SDS011;21053;50.848;4.652;2023-01-30T17:00:36;24.95;;;4.55;;
34836;SDS011;21053;50.848;4.652;2023-01-30T17:03:06;30.17;;;4.68;;
34836;SDS011;21053;50.848;4.652;2023-01-30T17:05:47;30.67;;;5.88;;
34836;SDS011;21053;50.848;4.652;2023-01-30T17:19:34;36.40;;;4.80;;
34836;SDS011;21053;50.848;4.652;2023-01-30T17:22:01;26.05;;;4.78;;
34836;SDS011;21053;50.848;4.652;2023-01-30T17:24:29;31.77;;;5.45;;
34836;SDS011;21053;50.848;4.652;2023-01-30T17:29:30;32.80;;;4.68;;
34836;SDS011;21053;50.848;4.652;2023-01-30T17:31:58;34.05;;;4.07;;
34836;SDS011;21053;50.848;4.652;2023-01-30T17:34:24;30.08;;;4.68;;
34836;SDS011;21053;50.848;4.652;2023-01-30T17:39:22;21.35;;;4.30;;
34836;SDS011;21053;50.848;4.652;2023-01-30T17:41:50;29.08;;;5.10;;
34836;SDS011;21053;50.848;4.652;2023-01-30T17:44:16;27.00;;;4.95;;
34836;SDS011;21053;50.848;4.652;2023-01-30T17:46:45;20.63;;;3.78;;
34836;SDS011;21053;50.848;4.652;2023-01-30T17:51:54;33.33;;;4.38;;
34836;SDS011;21053;50.848;4.652;2023-01-30T17:54:23;24.95;;;3.90;;
34836;SDS011;21053;50.848;4.652;2023-01-30T17:57:03;30.00;;;4.18;;
34836;SDS011;21053;50.848;4.652;2023-01-30T18:02:01;27.65;;;4.22;;
34836;SDS011;21053;50.848;4.652;2023-01-30T18:04:28;33.35;;;4.25;;
34836;SDS011;21053;50.848;4.652;2023-01-30T18:06:58;34.95;;;4.53;;
34836;SDS011;21053;50.848;4.652;2023-01-30T18:09:29;28.52;;;4.53;;
34836;SDS011;21053;50.848;4.652;2023-01-30T18:11:57;30.13;;;4.43;;
34836;SDS011;21053;50.848;4.652;2023-01-30T18:14:26;34.35;;;4.53;;
34836;SDS011;21053;50.848;4.652;2023-01-30T18:16:52;28.38;;;3.75;;
34836;SDS011;21053;50.848;4.652;2023-01-30T18:19:27;31.65;;;4.60;;
34836;SDS011;21053;50.848;4.652;2023-01-30T18:21:54;26.45;;;4.20;;
34836;SDS011;21053;50.848;4.652;2023-01-30T18:24:23;26.55;;;4.13;;
34836;SDS011;21053;50.848;4.652;2023-01-30T18:26:48;31.25;;;4.30;;
34836;SDS011;21053;50.848;4.652;2023-01-30T18:31:43;20.80;;;4.65;;
34836;SDS011;21053;50.848;4.652;2023-01-30T18:34:09;35.03;;;4.80;;
34836;SDS011;21053;50.848;4.652;2023-01-30T18:36:35;27.17;;;5.63;;
34836;SDS011;21053;50.848;4.652;2023-01-30T18:39:02;25.77;;;7.50;;
34836;SDS011;21053;50.848;4.652;2023-01-30T18:41:29;39.42;;;7.63;;
34836;SDS011;21053;50.848;4.652;2023-01-30T18:43:55;39.78;;;10.15;;
34836;SDS011;21053;50.848;4.652;2023-01-30T18:46:23;42.88;;;8.65;;
34836;SDS011;21053;50.848;4.652;2023-01-30T18:48:51;35.90;;;5.55;;
34836;SDS011;21053;50.848;4.652;2023-01-30T18:51:30;27.67;;;4.07;;
34836;SDS011;21053;50.848;4.652;2023-01-30T18:56:30;36.42;;;4.40;;
34836;SDS011;21053;50.848;4.652;2023-01-30T18:59:03;24.45;;;3.67;;
34836;SDS011;21053;50.848;4.652;2023-01-30T19:01:32;25.48;;;3.63;;
34836;SDS011;21053;50.848;4.652;2023-01-30T19:04:01;28.02;;;4.45;;
34836;SDS011;21053;50.848;4.652;2023-01-30T19:06:29;27.17;;;3.67;;
34836;SDS011;21053;50.848;4.652;2023-01-30T19:08:57;19.92;;;3.97;;
34836;SDS011;21053;50.848;4.652;2023-01-30T19:11:23;24.73;;;4.10;;
34836;SDS011;21053;50.848;4.652;2023-01-30T19:14:10;40.03;;;3.92;;
34836;SDS011;21053;50.848;4.652;2023-01-30T19:16:39;26.27;;;4.03;;
34836;SDS011;21053;50.848;4.652;2023-01-30T19:19:08;25.55;;;3.90;;
34836;SDS011;21053;50.848;4.652;2023-01-30T19:21:36;27.20;;;4.18;;
34836;SDS011;21053;50.848;4.652;2023-01-30T19:24:09;27.00;;;3.53;;
34836;SDS011;21053;50.848;4.652;2023-01-30T19:26:37;35.55;;;3.80;;
34836;SDS011;21053;50.848;4.652;2023-01-30T19:29:02;23.70;;;4.05;;
34836;SDS011;21053;50.848;4.652;2023-01-30T19:31:28;27.80;;;4.88;;
34836;SDS011;21053;50.848;4.652;2023-01-30T19:33:56;25.25;;;4.00;;
34836;SDS011;21053;50.848;4.652;2023-01-30T19:36:26;31.08;;;4.68;;
34836;SDS011;21053;50.848;4.652;2023-01-30T19:38:54;35.65;;;4.15;;
34836;SDS011;21053;50.848;4.652;2023-01-30T19:41:22;28.70;;;3.92;;
34836;SDS011;21053;50.848;4.652;2023-01-30T19:43:50;29.13;;;4.05;;
34836;SDS011;21053;50.848;4.652;2023-01-30T19:46:19;29.92;;;3.95;;
34836;SDS011;21053;50.848;4.652;2023-01-30T19:48:47;29.17;;;4.45;;
34836;SDS011;21053;50.848;4.652;2023-01-30T19:51:18;37.85;;;5.00;;
34836;SDS011;21053;50.848;4.652;2023-01-30T19:53:50;23.15;;;3.97;;
34836;SDS011;21053;50.848;4.652;2023-01-30T19:56:23;34.33;;;4.03;;
34836;SDS011;21053;50.848;4.652;2023-01-30T19:58:54;29.33;;;4.45;;
34836;SDS011;21053;50.848;4.652;2023-01-30T20:01:22;29.63;;;4.00;;
34836;SDS011;21053;50.848;4.652;2023-01-30T20:03:53;25.15;;;4.13;;
34836;SDS011;21053;50.848;4.652;2023-01-30T20:06:21;24.55;;;4.60;;
34836;SDS011;21053;50.848;4.652;2023-01-30T20:08:55;37.25;;;4.68;;
34836;SDS011;21053;50.848;4.652;2023-01-30T20:11:25;29.85;;;4.50;;
34836;SDS011;21053;50.848;4.652;2023-01-30T20:13:51;32.38;;;5.47;;
34836;SDS011;21053;50.848;4.652;2023-01-30T20:16:26;34.67;;;5.78;;
34836;SDS011;21053;50.848;4.652;2023-01-30T20:18:55;28.73;;;4.70;;
34836;SDS011;21053;50.848;4.652;2023-01-30T20:21:22;29.88;;;5.70;;
34836;SDS011;21053;50.848;4.652;2023-01-30T20:23:49;34.17;;;5.70;;
34836;SDS011;21053;50.848;4.652;2023-01-30T20:26:20;31.38;;;6.45;;
34836;SDS011;21053;50.848;4.652;2023-01-30T20:28:55;39.17;;;7.53;;
34836;SDS011;21053;50.848;4.652;2023-01-30T20:31:26;34.60;;;6.65;;
34836;SDS011;21053;50.848;4.652;2023-01-30T20:33:56;35.72;;;6.70;;
34836;SDS011;21053;50.848;4.652;2023-01-30T20:36:25;43.53;;;7.25;;
34836;SDS011;21053;50.848;4.652;2023-01-30T20:38:53;42.15;;;8.00;;
34836;SDS011;21053;50.848;4.652;2023-01-30T20:41:22;43.08;;;8.38;;
34836;SDS011;21053;50.848;4.652;2023-01-30T20:43:51;51.90;;;10.77;;
34836;SDS011;21053;50.848;4.652;2023-01-30T20:46:20;51.60;;;10.98;;
34836;SDS011;21053;50.848;4.652;2023-01-30T20:48:49;48.40;;;9.75;;
34836;SDS011;21053;50.848;4.652;2023-01-30T20:51:17;43.38;;;9.25;;
34836;SDS011;21053;50.848;4.652;2023-01-30T20:53:51;45.03;;;9.10;;
34836;SDS011;21053;50.848;4.652;2023-01-30T20:56:21;41.95;;;9.15;;
34836;SDS011;21053;50.848;4.652;2023-01-30T20:58:49;38.35;;;8.43;;
34836;SDS011;21053;50.848;4.652;2023-01-30T21:01:16;32.25;;;7.93;;
34836;SDS011;21053;50.848;4.652;2023-01-30T21:03:46;35.03;;;7.75;;
34836;SDS011;21053;50.848;4.652;2023-01-30T21:06:16;44.33;;;7.32;;